sensor_id;sensor_type;location;lat;lon;timestamp;temperature;humidity
18456;DHT22;9357;49.900;8.208;2023-02-02T00:00:27;7.10;99.90
18456;DHT22;9357;49.900;8.208;2023-02-02T00:02:01;7.10;99.90
18456;DHT22;9357;49.900;8.208;2023-02-02T00:03:34;7.10;99.90
18456;DHT22;9357;49.900;8.208;2023-02-02T00:05:08;7.10;99.90
18456;DHT22;9357;49.900;8.208;2023-02-02T00:06:41;7.10;99.90
18456;DHT22;9357;49.900;8.208;2023-02-02T00:08:14;7.10;99.90
18456;DHT22;9357;49.900;8.208;2023-02-02T00:09:47;7.10;99.90
18456;DHT22;9357;49.900;8.208;2023-02-02T00:11:20;7.10;99.90
18456;DHT22;9357;49.900;8.208;2023-02-02T00:12:53;7.10;99.90
18456;DHT22;9357;49.900;8.208;2023-02-02T00:14:28;7.10;99.90
18456;DHT22;9357;49.900;8.208;2023-02-02T00:16:32;7.00;99.90
18456;DHT22;9357;49.900;8.208;2023-02-02T00:18:07;7.10;99.90
18456;DHT22;9357;49.900;8.208;2023-02-02T00:19:41;7.10;99.90
18456;DHT22;9357;49.900;8.208;2023-02-02T00:21:13;7.10;99.90
18456;DHT22;9357;49.900;8.208;2023-02-02T00:22:46;7.10;99.90
18456;DHT22;9357;49.900;8.208;2023-02-02T00:24:19;7.10;99.90
18456;DHT22;9357;49.900;8.208;2023-02-02T00:25:52;7.10;99.90
18456;DHT22;9357;49.900;8.208;2023-02-02T00:27:23;7.10;99.90
18456;DHT22;9357;49.900;8.208;2023-02-02T00:28:56;7.00;99.90
18456;DHT22;9357;49.900;8.208;2023-02-02T00:30:29;7.00;99.90
18456;DHT22;9357;49.900;8.208;2023-02-02T00:32:02;7.00;99.90
18456;DHT22;9357;49.900;8.208;2023-02-02T00:33:37;7.00;99.90
18456;DHT22;9357;49.900;8.208;2023-02-02T00:35:08;7.00;99.90
18456;DHT22;9357;49.900;8.208;2023-02-02T00:36:42;7.00;99.90
18456;DHT22;9357;49.900;8.208;2023-02-02T00:38:14;7.00;99.90
18456;DHT22;9357;49.900;8.208;2023-02-02T00:39:46;7.10;99.90
18456;DHT22;9357;49.900;8.208;2023-02-02T00:41:19;7.10;99.90
18456;DHT22;9357;49.900;8.208;2023-02-02T00:42:52;7.10;99.90
18456;DHT22;9357;49.900;8.208;2023-02-02T00:44:25;7.00;99.90
18456;DHT22;9357;49.900;8.208;2023-02-02T00:46:17;7.00;99.90
18456;DHT22;9357;49.900;8.208;2023-02-02T00:47:49;7.10;99.90
18456;DHT22;9357;49.900;8.208;2023-02-02T00:49:23;7.00;99.90
18456;DHT22;9357;49.900;8.208;2023-02-02T00:50:55;7.10;99.90
18456;DHT22;9357;49.900;8.208;2023-02-02T00:52:28;7.00;99.90
18456;DHT22;9357;49.900;8.208;2023-02-02T00:54:01;7.00;99.90
18456;DHT22;9357;49.900;8.208;2023-02-02T00:55:34;7.00;99.90
18456;DHT22;9357;49.900;8.208;2023-02-02T00:57:08;7.00;99.90
18456;DHT22;9357;49.900;8.208;2023-02-02T00:58:43;7.00;99.90
18456;DHT22;9357;49.900;8.208;2023-02-02T01:00:18;7.00;99.90
18456;DHT22;9357;49.900;8.208;2023-02-02T01:01:51;7.00;99.90
18456;DHT22;9357;49.900;8.208;2023-02-02T01:03:24;7.00;99.90
18456;DHT22;9357;49.900;8.208;2023-02-02T01:04:58;7.00;99.90
18456;DHT22;9357;49.900;8.208;2023-02-02T01:06:30;7.00;99.90
18456;DHT22;9357;49.900;8.208;2023-02-02T01:08:03;7.00;99.90
18456;DHT22;9357;49.900;8.208;2023-02-02T01:09:36;7.00;99.90
18456;DHT22;9357;49.900;8.208;2023-02-02T01:11:08;7.00;99.90
18456;DHT22;9357;49.900;8.208;2023-02-02T01:12:40;7.00;99.90
18456;DHT22;9357;49.900;8.208;2023-02-02T01:14:13;7.00;99.90
18456;DHT22;9357;49.900;8.208;2023-02-02T01:15:46;6.90;99.90
18456;DHT22;9357;49.900;8.208;2023-02-02T01:17:19;7.00;99.90
18456;DHT22;9357;49.900;8.208;2023-02-02T01:18:52;7.00;99.90
18456;DHT22;9357;49.900;8.208;2023-02-02T01:20:26;6.90;99.90
18456;DHT22;9357;49.900;8.208;2023-02-02T01:21:58;6.90;99.90
18456;DHT22;9357;49.900;8.208;2023-02-02T01:23:32;7.00;99.90
18456;DHT22;9357;49.900;8.208;2023-02-02T01:25:05;6.90;99.90
18456;DHT22;9357;49.900;8.208;2023-02-02T01:26:38;6.90;99.90
18456;DHT22;9357;49.900;8.208;2023-02-02T01:28:11;7.00;99.90
18456;DHT22;9357;49.900;8.208;2023-02-02T01:29:44;7.00;99.90
18456;DHT22;9357;49.900;8.208;2023-02-02T01:31:18;7.00;99.90
18456;DHT22;9357;49.900;8.208;2023-02-02T01:32:51;7.00;99.90
18456;DHT22;9357;49.900;8.208;2023-02-02T01:34:24;7.00;99.90
18456;DHT22;9357;49.900;8.208;2023-02-02T01:35:58;7.00;99.90
18456;DHT22;9357;49.900;8.208;2023-02-02T01:37:34;7.00;99.90
18456;DHT22;9357;49.900;8.208;2023-02-02T01:39:07;7.00;99.90
18456;DHT22;9357;49.900;8.208;2023-02-02T01:40:44;7.00;99.90
18456;DHT22;9357;49.900;8.208;2023-02-02T01:42:19;7.00;99.90
18456;DHT22;9357;49.900;8.208;2023-02-02T01:43:56;7.00;99.90
18456;DHT22;9357;49.900;8.208;2023-02-02T01:45:29;7.00;99.90
18456;DHT22;9357;49.900;8.208;2023-02-02T01:47:01;7.00;99.90
18456;DHT22;9357;49.900;8.208;2023-02-02T01:48:34;7.00;99.90
18456;DHT22;9357;49.900;8.208;2023-02-02T01:50:08;7.00;99.90
18456;DHT22;9357;49.900;8.208;2023-02-02T01:51:46;7.00;99.90
18456;DHT22;9357;49.900;8.208;2023-02-02T01:53:20;7.00;99.90
18456;DHT22;9357;49.900;8.208;2023-02-02T01:54:56;7.00;99.90
18456;DHT22;9357;49.900;8.208;2023-02-02T01:56:32;7.00;99.90
18456;DHT22;9357;49.900;8.208;2023-02-02T01:58:09;7.00;99.90
18456;DHT22;9357;49.900;8.208;2023-02-02T01:59:44;7.00;99.90
18456;DHT22;9357;49.900;8.208;2023-02-02T02:01:18;7.00;99.90
18456;DHT22;9357;49.900;8.208;2023-02-02T02:02:51;7.10;99.90
18456;DHT22;9357;49.900;8.208;2023-02-02T02:04:26;7.10;99.90
18456;DHT22;9357;49.900;8.208;2023-02-02T02:06:03;7.10;99.90
18456;DHT22;9357;49.900;8.208;2023-02-02T02:07:39;7.10;99.90
18456;DHT22;9357;49.900;8.208;2023-02-02T02:09:13;7.10;99.90
18456;DHT22;9357;49.900;8.208;2023-02-02T02:10:46;7.10;99.90
18456;DHT22;9357;49.900;8.208;2023-02-02T02:12:18;7.10;99.90
18456;DHT22;9357;49.900;8.208;2023-02-02T02:13:51;7.10;99.90
18456;DHT22;9357;49.900;8.208;2023-02-02T02:15:59;7.10;99.90
18456;DHT22;9357;49.900;8.208;2023-02-02T02:18:00;7.10;99.90
18456;DHT22;9357;49.900;8.208;2023-02-02T02:22:06;7.10;99.90
18456;DHT22;9357;49.900;8.208;2023-02-02T02:26:50;7.10;99.90
18456;DHT22;9357;49.900;8.208;2023-02-02T02:31:12;7.10;99.90
18456;DHT22;9357;49.900;8.208;2023-02-02T02:32:51;7.10;99.90
18456;DHT22;9357;49.900;8.208;2023-02-02T02:34:34;7.10;99.90
18456;DHT22;9357;49.900;8.208;2023-02-02T02:36:16;7.10;99.90
18456;DHT22;9357;49.900;8.208;2023-02-02T02:37:55;7.10;99.90
18456;DHT22;9357;49.900;8.208;2023-02-02T02:39:33;7.10;99.90
18456;DHT22;9357;49.900;8.208;2023-02-02T02:41:11;7.00;99.90
18456;DHT22;9357;49.900;8.208;2023-02-02T02:42:48;7.00;99.90
18456;DHT22;9357;49.900;8.208;2023-02-02T02:44:23;7.10;99.90
18456;DHT22;9357;49.900;8.208;2023-02-02T02:45:57;7.10;99.90
18456;DHT22;9357;49.900;8.208;2023-02-02T02:47:31;7.10;99.90
18456;DHT22;9357;49.900;8.208;2023-02-02T02:49:07;7.10;99.90
18456;DHT22;9357;49.900;8.208;2023-02-02T02:50:40;7.10;99.90
18456;DHT22;9357;49.900;8.208;2023-02-02T02:52:14;7.10;99.90
18456;DHT22;9357;49.900;8.208;2023-02-02T02:53:46;7.10;99.90
18456;DHT22;9357;49.900;8.208;2023-02-02T02:55:19;7.10;99.90
18456;DHT22;9357;49.900;8.208;2023-02-02T02:57:02;7.10;99.90
18456;DHT22;9357;49.900;8.208;2023-02-02T02:58:43;7.10;99.90
18456;DHT22;9357;49.900;8.208;2023-02-02T03:00:26;7.10;99.90
18456;DHT22;9357;49.900;8.208;2023-02-02T03:02:11;7.10;99.90
18456;DHT22;9357;49.900;8.208;2023-02-02T03:04:00;7.10;99.90
18456;DHT22;9357;49.900;8.208;2023-02-02T03:05:46;7.10;99.90
18456;DHT22;9357;49.900;8.208;2023-02-02T03:07:24;7.10;99.90
18456;DHT22;9357;49.900;8.208;2023-02-02T03:09:02;7.10;99.90
18456;DHT22;9357;49.900;8.208;2023-02-02T03:10:37;7.10;99.90
18456;DHT22;9357;49.900;8.208;2023-02-02T03:12:11;7.10;99.90
18456;DHT22;9357;49.900;8.208;2023-02-02T03:13:44;7.10;99.90
18456;DHT22;9357;49.900;8.208;2023-02-02T03:15:17;7.10;99.90
18456;DHT22;9357;49.900;8.208;2023-02-02T03:16:50;7.10;99.90
18456;DHT22;9357;49.900;8.208;2023-02-02T03:18:26;7.10;99.90
18456;DHT22;9357;49.900;8.208;2023-02-02T03:19:58;7.10;99.90
18456;DHT22;9357;49.900;8.208;2023-02-02T03:21:33;7.20;99.90
18456;DHT22;9357;49.900;8.208;2023-02-02T03:23:06;7.10;99.90
18456;DHT22;9357;49.900;8.208;2023-02-02T03:24:38;7.10;99.90
18456;DHT22;9357;49.900;8.208;2023-02-02T03:26:11;7.10;99.90
18456;DHT22;9357;49.900;8.208;2023-02-02T03:27:44;7.10;99.90
18456;DHT22;9357;49.900;8.208;2023-02-02T03:29:17;7.10;99.90
18456;DHT22;9357;49.900;8.208;2023-02-02T03:30:51;7.20;99.90
18456;DHT22;9357;49.900;8.208;2023-02-02T03:32:25;7.10;99.90
18456;DHT22;9357;49.900;8.208;2023-02-02T03:33:57;7.10;99.90
18456;DHT22;9357;49.900;8.208;2023-02-02T03:35:30;7.10;99.90
18456;DHT22;9357;49.900;8.208;2023-02-02T03:37:03;7.10;99.90
18456;DHT22;9357;49.900;8.208;2023-02-02T03:38:36;7.10;99.90
18456;DHT22;9357;49.900;8.208;2023-02-02T03:40:10;7.00;99.90
18456;DHT22;9357;49.900;8.208;2023-02-02T03:41:43;7.00;99.90
18456;DHT22;9357;49.900;8.208;2023-02-02T03:43:19;7.10;99.90
18456;DHT22;9357;49.900;8.208;2023-02-02T03:44:52;7.00;99.90
18456;DHT22;9357;49.900;8.208;2023-02-02T03:46:23;7.00;99.90
18456;DHT22;9357;49.900;8.208;2023-02-02T03:47:56;7.00;99.90
18456;DHT22;9357;49.900;8.208;2023-02-02T03:49:29;7.00;99.90
18456;DHT22;9357;49.900;8.208;2023-02-02T03:51:05;7.00;99.90
18456;DHT22;9357;49.900;8.208;2023-02-02T03:52:40;7.00;99.90
18456;DHT22;9357;49.900;8.208;2023-02-02T03:54:13;7.00;99.90
18456;DHT22;9357;49.900;8.208;2023-02-02T03:55:45;7.00;99.90
18456;DHT22;9357;49.900;8.208;2023-02-02T03:57:18;7.00;99.90
18456;DHT22;9357;49.900;8.208;2023-02-02T03:58:51;7.00;99.90
18456;DHT22;9357;49.900;8.208;2023-02-02T04:00:24;7.00;99.90
18456;DHT22;9357;49.900;8.208;2023-02-02T04:01:56;7.00;99.90
18456;DHT22;9357;49.900;8.208;2023-02-02T04:03:29;7.00;99.90
18456;DHT22;9357;49.900;8.208;2023-02-02T04:05:02;7.00;99.90
18456;DHT22;9357;49.900;8.208;2023-02-02T04:06:35;7.00;99.90
18456;DHT22;9357;49.900;8.208;2023-02-02T04:08:09;7.00;99.90
18456;DHT22;9357;49.900;8.208;2023-02-02T04:09:41;7.00;99.90
18456;DHT22;9357;49.900;8.208;2023-02-02T04:11:13;7.00;99.90
18456;DHT22;9357;49.900;8.208;2023-02-02T04:12:46;7.00;99.90
18456;DHT22;9357;49.900;8.208;2023-02-02T04:14:19;7.00;99.90
18456;DHT22;9357;49.900;8.208;2023-02-02T04:15:56;7.00;99.90
18456;DHT22;9357;49.900;8.208;2023-02-02T04:17:28;7.00;99.90
18456;DHT22;9357;49.900;8.208;2023-02-02T04:19:01;7.00;99.90
18456;DHT22;9357;49.900;8.208;2023-02-02T04:20:34;7.00;99.90
18456;DHT22;9357;49.900;8.208;2023-02-02T04:22:07;7.00;99.90
18456;DHT22;9357;49.900;8.208;2023-02-02T04:23:41;7.00;99.90
18456;DHT22;9357;49.900;8.208;2023-02-02T04:25:13;7.00;99.90
18456;DHT22;9357;49.900;8.208;2023-02-02T04:26:45;7.00;99.90
18456;DHT22;9357;49.900;8.208;2023-02-02T04:28:18;7.00;99.90
18456;DHT22;9357;49.900;8.208;2023-02-02T04:29:51;7.10;99.90
18456;DHT22;9357;49.900;8.208;2023-02-02T04:31:24;7.10;99.90
18456;DHT22;9357;49.900;8.208;2023-02-02T04:32:57;7.10;99.90
18456;DHT22;9357;49.900;8.208;2023-02-02T04:34:30;7.10;99.90
18456;DHT22;9357;49.900;8.208;2023-02-02T04:36:04;7.10;99.90
18456;DHT22;9357;49.900;8.208;2023-02-02T04:37:37;7.20;99.90
18456;DHT22;9357;49.900;8.208;2023-02-02T04:39:11;7.20;99.90
18456;DHT22;9357;49.900;8.208;2023-02-02T04:40:45;7.10;99.90
18456;DHT22;9357;49.900;8.208;2023-02-02T04:42:18;7.10;99.90
18456;DHT22;9357;49.900;8.208;2023-02-02T04:43:51;7.20;99.90
18456;DHT22;9357;49.900;8.208;2023-02-02T04:45:24;7.10;99.90
18456;DHT22;9357;49.900;8.208;2023-02-02T04:46:56;7.20;99.90
18456;DHT22;9357;49.900;8.208;2023-02-02T04:48:29;7.20;99.90
18456;DHT22;9357;49.900;8.208;2023-02-02T04:50:02;7.20;99.90
18456;DHT22;9357;49.900;8.208;2023-02-02T04:51:34;7.20;99.90
18456;DHT22;9357;49.900;8.208;2023-02-02T04:53:07;7.20;99.90
18456;DHT22;9357;49.900;8.208;2023-02-02T04:54:41;7.20;99.90
18456;DHT22;9357;49.900;8.208;2023-02-02T04:56:15;7.20;99.90
18456;DHT22;9357;49.900;8.208;2023-02-02T04:57:48;7.20;99.90
18456;DHT22;9357;49.900;8.208;2023-02-02T04:59:21;7.20;99.90
18456;DHT22;9357;49.900;8.208;2023-02-02T05:00:53;7.30;99.90
18456;DHT22;9357;49.900;8.208;2023-02-02T05:02:25;7.20;99.90
18456;DHT22;9357;49.900;8.208;2023-02-02T05:03:58;7.30;99.90
18456;DHT22;9357;49.900;8.208;2023-02-02T05:05:31;7.20;99.90
18456;DHT22;9357;49.900;8.208;2023-02-02T05:07:03;7.30;99.90
18456;DHT22;9357;49.900;8.208;2023-02-02T05:08:36;7.30;99.90
18456;DHT22;9357;49.900;8.208;2023-02-02T05:10:10;7.30;99.90
18456;DHT22;9357;49.900;8.208;2023-02-02T05:11:43;7.30;99.90
18456;DHT22;9357;49.900;8.208;2023-02-02T05:13:16;7.30;99.90
18456;DHT22;9357;49.900;8.208;2023-02-02T05:14:49;7.30;99.90
18456;DHT22;9357;49.900;8.208;2023-02-02T05:16:22;7.30;99.90
18456;DHT22;9357;49.900;8.208;2023-02-02T05:17:58;7.30;99.90
18456;DHT22;9357;49.900;8.208;2023-02-02T05:19:30;7.30;99.90
18456;DHT22;9357;49.900;8.208;2023-02-02T05:21:03;7.30;99.90
18456;DHT22;9357;49.900;8.208;2023-02-02T05:22:35;7.30;99.90
18456;DHT22;9357;49.900;8.208;2023-02-02T05:24:08;7.30;99.90
18456;DHT22;9357;49.900;8.208;2023-02-02T05:25:41;7.30;99.90
18456;DHT22;9357;49.900;8.208;2023-02-02T05:27:14;7.30;99.90
18456;DHT22;9357;49.900;8.208;2023-02-02T05:28:46;7.30;99.90
18456;DHT22;9357;49.900;8.208;2023-02-02T05:30:19;7.30;99.90
18456;DHT22;9357;49.900;8.208;2023-02-02T05:31:52;7.30;99.90
18456;DHT22;9357;49.900;8.208;2023-02-02T05:33:25;7.30;99.90
18456;DHT22;9357;49.900;8.208;2023-02-02T05:34:58;7.20;99.90
18456;DHT22;9357;49.900;8.208;2023-02-02T05:36:30;7.20;99.90
18456;DHT22;9357;49.900;8.208;2023-02-02T05:38:03;7.20;99.90
18456;DHT22;9357;49.900;8.208;2023-02-02T05:39:36;7.20;99.90
18456;DHT22;9357;49.900;8.208;2023-02-02T05:41:11;7.20;99.90
18456;DHT22;9357;49.900;8.208;2023-02-02T05:42:46;7.20;99.90
18456;DHT22;9357;49.900;8.208;2023-02-02T05:44:19;7.20;99.90
18456;DHT22;9357;49.900;8.208;2023-02-02T05:45:52;7.20;99.90
18456;DHT22;9357;49.900;8.208;2023-02-02T05:47:25;7.20;99.90
18456;DHT22;9357;49.900;8.208;2023-02-02T05:48:58;7.20;99.90
18456;DHT22;9357;49.900;8.208;2023-02-02T05:50:30;7.10;99.90
18456;DHT22;9357;49.900;8.208;2023-02-02T05:52:03;7.10;99.90
18456;DHT22;9357;49.900;8.208;2023-02-02T05:53:36;7.10;99.90
18456;DHT22;9357;49.900;8.208;2023-02-02T05:55:09;7.10;99.90
18456;DHT22;9357;49.900;8.208;2023-02-02T05:56:43;7.10;99.90
18456;DHT22;9357;49.900;8.208;2023-02-02T05:58:16;7.10;99.90
18456;DHT22;9357;49.900;8.208;2023-02-02T05:59:49;7.10;99.90
18456;DHT22;9357;49.900;8.208;2023-02-02T06:01:22;7.10;99.90
18456;DHT22;9357;49.900;8.208;2023-02-02T06:02:54;7.10;99.90
18456;DHT22;9357;49.900;8.208;2023-02-02T06:04:27;7.10;99.90
18456;DHT22;9357;49.900;8.208;2023-02-02T06:06:00;7.10;99.90
18456;DHT22;9357;49.900;8.208;2023-02-02T06:07:33;7.10;99.90
18456;DHT22;9357;49.900;8.208;2023-02-02T06:09:06;7.10;99.90
18456;DHT22;9357;49.900;8.208;2023-02-02T06:10:39;7.10;99.90
18456;DHT22;9357;49.900;8.208;2023-02-02T06:12:14;7.10;99.90
18456;DHT22;9357;49.900;8.208;2023-02-02T06:13:46;7.10;99.90
18456;DHT22;9357;49.900;8.208;2023-02-02T06:15:19;7.10;99.90
18456;DHT22;9357;49.900;8.208;2023-02-02T06:16:52;7.10;99.90
18456;DHT22;9357;49.900;8.208;2023-02-02T06:18:25;7.10;99.90
18456;DHT22;9357;49.900;8.208;2023-02-02T06:19:57;7.00;99.90
18456;DHT22;9357;49.900;8.208;2023-02-02T06:21:30;7.10;99.90
18456;DHT22;9357;49.900;8.208;2023-02-02T06:23:04;7.10;99.90
18456;DHT22;9357;49.900;8.208;2023-02-02T06:24:37;7.10;99.90
18456;DHT22;9357;49.900;8.208;2023-02-02T06:26:09;7.10;99.90
18456;DHT22;9357;49.900;8.208;2023-02-02T06:27:43;7.10;99.90
18456;DHT22;9357;49.900;8.208;2023-02-02T06:29:16;7.10;99.90
18456;DHT22;9357;49.900;8.208;2023-02-02T06:30:49;7.10;99.90
18456;DHT22;9357;49.900;8.208;2023-02-02T06:32:22;7.10;99.90
18456;DHT22;9357;49.900;8.208;2023-02-02T06:33:56;7.10;99.90
18456;DHT22;9357;49.900;8.208;2023-02-02T06:35:29;7.10;99.90
18456;DHT22;9357;49.900;8.208;2023-02-02T06:37:02;7.10;99.90
18456;DHT22;9357;49.900;8.208;2023-02-02T06:38:35;7.10;99.90
18456;DHT22;9357;49.900;8.208;2023-02-02T06:40:08;7.10;99.90
18456;DHT22;9357;49.900;8.208;2023-02-02T06:41:41;7.10;99.90
18456;DHT22;9357;49.900;8.208;2023-02-02T06:43:18;7.10;99.90
18456;DHT22;9357;49.900;8.208;2023-02-02T06:44:51;7.20;99.90
18456;DHT22;9357;49.900;8.208;2023-02-02T06:46:24;7.20;99.90
18456;DHT22;9357;49.900;8.208;2023-02-02T06:47:58;7.10;99.90
18456;DHT22;9357;49.900;8.208;2023-02-02T06:49:33;7.10;99.90
18456;DHT22;9357;49.900;8.208;2023-02-02T06:51:07;7.20;99.90
18456;DHT22;9357;49.900;8.208;2023-02-02T06:52:46;7.20;99.90
18456;DHT22;9357;49.900;8.208;2023-02-02T06:54:19;7.20;99.90
18456;DHT22;9357;49.900;8.208;2023-02-02T06:55:53;7.20;99.90
18456;DHT22;9357;49.900;8.208;2023-02-02T06:57:25;7.20;99.90
18456;DHT22;9357;49.900;8.208;2023-02-02T06:58:59;7.20;99.90
18456;DHT22;9357;49.900;8.208;2023-02-02T07:00:32;7.20;99.90
18456;DHT22;9357;49.900;8.208;2023-02-02T07:02:09;7.20;99.90
18456;DHT22;9357;49.900;8.208;2023-02-02T07:03:47;7.20;99.90
18456;DHT22;9357;49.900;8.208;2023-02-02T07:05:19;7.20;99.90
18456;DHT22;9357;49.900;8.208;2023-02-02T07:06:54;7.20;99.90
18456;DHT22;9357;49.900;8.208;2023-02-02T07:08:27;7.20;99.90
18456;DHT22;9357;49.900;8.208;2023-02-02T07:10:00;7.30;99.90
18456;DHT22;9357;49.900;8.208;2023-02-02T07:11:33;7.20;99.90
18456;DHT22;9357;49.900;8.208;2023-02-02T07:13:15;7.20;99.90
18456;DHT22;9357;49.900;8.208;2023-02-02T07:14:49;7.30;99.90
18456;DHT22;9357;49.900;8.208;2023-02-02T07:16:22;7.30;99.90
18456;DHT22;9357;49.900;8.208;2023-02-02T07:17:54;7.30;99.90
18456;DHT22;9357;49.900;8.208;2023-02-02T07:19:27;7.30;99.90
18456;DHT22;9357;49.900;8.208;2023-02-02T07:21:00;7.30;99.90
18456;DHT22;9357;49.900;8.208;2023-02-02T07:22:33;7.30;99.90
18456;DHT22;9357;49.900;8.208;2023-02-02T07:24:06;7.30;99.90
18456;DHT22;9357;49.900;8.208;2023-02-02T07:25:39;7.30;99.90
18456;DHT22;9357;49.900;8.208;2023-02-02T07:27:14;7.30;99.90
18456;DHT22;9357;49.900;8.208;2023-02-02T07:28:47;7.40;99.90
18456;DHT22;9357;49.900;8.208;2023-02-02T07:30:21;7.40;99.90
18456;DHT22;9357;49.900;8.208;2023-02-02T07:31:55;7.40;99.90
18456;DHT22;9357;49.900;8.208;2023-02-02T07:33:28;7.40;99.90
18456;DHT22;9357;49.900;8.208;2023-02-02T07:35:01;7.40;99.90
18456;DHT22;9357;49.900;8.208;2023-02-02T07:36:34;7.40;99.90
18456;DHT22;9357;49.900;8.208;2023-02-02T07:38:07;7.40;99.90
18456;DHT22;9357;49.900;8.208;2023-02-02T07:39:40;7.40;99.90
18456;DHT22;9357;49.900;8.208;2023-02-02T07:41:14;7.40;99.90
18456;DHT22;9357;49.900;8.208;2023-02-02T07:42:47;7.40;99.90
18456;DHT22;9357;49.900;8.208;2023-02-02T07:44:20;7.40;99.90
18456;DHT22;9357;49.900;8.208;2023-02-02T07:45:58;7.40;99.90
18456;DHT22;9357;49.900;8.208;2023-02-02T07:47:32;7.40;99.90
18456;DHT22;9357;49.900;8.208;2023-02-02T07:49:05;7.40;99.90
18456;DHT22;9357;49.900;8.208;2023-02-02T07:50:38;7.40;99.90
18456;DHT22;9357;49.900;8.208;2023-02-02T07:52:10;7.40;99.90
18456;DHT22;9357;49.900;8.208;2023-02-02T07:53:44;7.50;99.90
18456;DHT22;9357;49.900;8.208;2023-02-02T07:55:17;7.50;99.90
18456;DHT22;9357;49.900;8.208;2023-02-02T07:56:50;7.50;99.90
18456;DHT22;9357;49.900;8.208;2023-02-02T07:58:22;7.50;99.90
18456;DHT22;9357;49.900;8.208;2023-02-02T07:59:55;7.50;99.90
18456;DHT22;9357;49.900;8.208;2023-02-02T08:01:29;7.50;99.90
18456;DHT22;9357;49.900;8.208;2023-02-02T08:03:02;7.50;99.90
18456;DHT22;9357;49.900;8.208;2023-02-02T08:04:35;7.50;99.90
18456;DHT22;9357;49.900;8.208;2023-02-02T08:06:09;7.60;99.90
18456;DHT22;9357;49.900;8.208;2023-02-02T08:07:42;7.50;99.90
18456;DHT22;9357;49.900;8.208;2023-02-02T08:09:16;7.60;99.90
18456;DHT22;9357;49.900;8.208;2023-02-02T08:10:49;7.60;99.90
18456;DHT22;9357;49.900;8.208;2023-02-02T08:12:22;7.70;99.90
18456;DHT22;9357;49.900;8.208;2023-02-02T08:13:57;7.60;99.90
18456;DHT22;9357;49.900;8.208;2023-02-02T08:15:31;7.60;99.90
18456;DHT22;9357;49.900;8.208;2023-02-02T08:17:05;7.60;99.90
18456;DHT22;9357;49.900;8.208;2023-02-02T08:18:38;7.60;99.90
18456;DHT22;9357;49.900;8.208;2023-02-02T08:20:12;7.60;99.90
18456;DHT22;9357;49.900;8.208;2023-02-02T08:21:45;7.60;99.90
18456;DHT22;9357;49.900;8.208;2023-02-02T08:23:18;7.60;99.90
18456;DHT22;9357;49.900;8.208;2023-02-02T08:24:54;7.60;99.90
18456;DHT22;9357;49.900;8.208;2023-02-02T08:26:28;7.60;99.90
18456;DHT22;9357;49.900;8.208;2023-02-02T08:28:01;7.60;99.90
18456;DHT22;9357;49.900;8.208;2023-02-02T08:29:37;7.60;99.90
18456;DHT22;9357;49.900;8.208;2023-02-02T08:31:12;7.60;99.90
18456;DHT22;9357;49.900;8.208;2023-02-02T08:32:47;7.60;99.90
18456;DHT22;9357;49.900;8.208;2023-02-02T08:34:20;7.60;99.90
18456;DHT22;9357;49.900;8.208;2023-02-02T08:35:52;7.60;99.90
18456;DHT22;9357;49.900;8.208;2023-02-02T08:37:25;7.60;99.90
18456;DHT22;9357;49.900;8.208;2023-02-02T08:38:59;7.60;99.90
18456;DHT22;9357;49.900;8.208;2023-02-02T08:40:33;7.60;99.90
18456;DHT22;9357;49.900;8.208;2023-02-02T08:42:06;7.60;99.90
18456;DHT22;9357;49.900;8.208;2023-02-02T08:43:40;7.60;99.90
18456;DHT22;9357;49.900;8.208;2023-02-02T08:45:13;7.60;99.90
18456;DHT22;9357;49.900;8.208;2023-02-02T08:47:06;7.60;99.90
18456;DHT22;9357;49.900;8.208;2023-02-02T08:48:40;7.60;99.90
18456;DHT22;9357;49.900;8.208;2023-02-02T08:50:13;7.60;99.90
18456;DHT22;9357;49.900;8.208;2023-02-02T08:51:46;7.70;99.90
18456;DHT22;9357;49.900;8.208;2023-02-02T08:53:18;7.70;99.90
18456;DHT22;9357;49.900;8.208;2023-02-02T08:54:51;7.70;99.90
18456;DHT22;9357;49.900;8.208;2023-02-02T08:56:24;7.70;99.90
18456;DHT22;9357;49.900;8.208;2023-02-02T08:57:57;7.70;99.90
18456;DHT22;9357;49.900;8.208;2023-02-02T08:59:30;7.70;99.90
18456;DHT22;9357;49.900;8.208;2023-02-02T09:01:04;7.70;99.90
18456;DHT22;9357;49.900;8.208;2023-02-02T09:02:37;7.70;99.90
18456;DHT22;9357;49.900;8.208;2023-02-02T09:04:13;7.70;99.90
18456;DHT22;9357;49.900;8.208;2023-02-02T09:05:47;7.70;99.90
18456;DHT22;9357;49.900;8.208;2023-02-02T09:07:20;7.70;99.90
18456;DHT22;9357;49.900;8.208;2023-02-02T09:08:52;7.70;99.90
18456;DHT22;9357;49.900;8.208;2023-02-02T09:10:25;7.80;99.90
18456;DHT22;9357;49.900;8.208;2023-02-02T09:11:59;7.80;99.90
18456;DHT22;9357;49.900;8.208;2023-02-02T09:13:32;7.80;99.90
18456;DHT22;9357;49.900;8.208;2023-02-02T09:15:05;7.80;99.90
18456;DHT22;9357;49.900;8.208;2023-02-02T09:16:38;7.90;99.90
18456;DHT22;9357;49.900;8.208;2023-02-02T09:18:11;7.90;99.90
18456;DHT22;9357;49.900;8.208;2023-02-02T09:19:45;7.90;99.90
18456;DHT22;9357;49.900;8.208;2023-02-02T09:21:18;7.90;99.90
18456;DHT22;9357;49.900;8.208;2023-02-02T09:22:54;7.90;99.90
18456;DHT22;9357;49.900;8.208;2023-02-02T09:24:27;7.90;99.90
18456;DHT22;9357;49.900;8.208;2023-02-02T09:26:08;7.90;99.90
18456;DHT22;9357;49.900;8.208;2023-02-02T09:27:41;7.90;99.90
18456;DHT22;9357;49.900;8.208;2023-02-02T09:29:15;7.90;99.90
18456;DHT22;9357;49.900;8.208;2023-02-02T09:30:49;7.90;99.90
18456;DHT22;9357;49.900;8.208;2023-02-02T09:32:21;8.00;99.90
18456;DHT22;9357;49.900;8.208;2023-02-02T09:33:54;7.90;99.90
18456;DHT22;9357;49.900;8.208;2023-02-02T09:35:28;7.90;99.90
18456;DHT22;9357;49.900;8.208;2023-02-02T09:37:01;7.90;99.90
18456;DHT22;9357;49.900;8.208;2023-02-02T09:38:34;8.00;99.90
18456;DHT22;9357;49.900;8.208;2023-02-02T09:40:12;8.00;99.90
18456;DHT22;9357;49.900;8.208;2023-02-02T09:42:19;8.00;99.90
18456;DHT22;9357;49.900;8.208;2023-02-02T09:44:04;8.10;99.90
18456;DHT22;9357;49.900;8.208;2023-02-02T09:45:46;8.10;99.90
18456;DHT22;9357;49.900;8.208;2023-02-02T09:47:24;8.10;99.90
18456;DHT22;9357;49.900;8.208;2023-02-02T09:49:01;8.10;99.90
18456;DHT22;9357;49.900;8.208;2023-02-02T09:50:42;8.10;99.90
18456;DHT22;9357;49.900;8.208;2023-02-02T09:52:21;8.10;99.90
18456;DHT22;9357;49.900;8.208;2023-02-02T09:53:57;8.10;99.90
18456;DHT22;9357;49.900;8.208;2023-02-02T09:55:35;8.10;99.90
18456;DHT22;9357;49.900;8.208;2023-02-02T09:57:13;8.10;99.90
18456;DHT22;9357;49.900;8.208;2023-02-02T09:58:49;8.10;99.90
18456;DHT22;9357;49.900;8.208;2023-02-02T10:00:28;8.10;99.90
18456;DHT22;9357;49.900;8.208;2023-02-02T10:02:05;8.10;99.90
18456;DHT22;9357;49.900;8.208;2023-02-02T10:03:44;8.20;99.90
18456;DHT22;9357;49.900;8.208;2023-02-02T10:05:26;8.20;99.90
18456;DHT22;9357;49.900;8.208;2023-02-02T10:07:06;8.20;99.90
18456;DHT22;9357;49.900;8.208;2023-02-02T10:08:44;8.20;99.90
18456;DHT22;9357;49.900;8.208;2023-02-02T10:10:22;8.20;99.90
18456;DHT22;9357;49.900;8.208;2023-02-02T10:12:01;8.20;99.90
18456;DHT22;9357;49.900;8.208;2023-02-02T10:13:37;8.20;99.90
18456;DHT22;9357;49.900;8.208;2023-02-02T10:15:17;8.20;99.90
18456;DHT22;9357;49.900;8.208;2023-02-02T10:16:55;8.20;99.90
18456;DHT22;9357;49.900;8.208;2023-02-02T10:18:38;8.20;99.90
18456;DHT22;9357;49.900;8.208;2023-02-02T10:20:22;8.20;99.90
18456;DHT22;9357;49.900;8.208;2023-02-02T10:22:03;8.20;99.90
18456;DHT22;9357;49.900;8.208;2023-02-02T10:23:39;8.20;99.90
18456;DHT22;9357;49.900;8.208;2023-02-02T10:25:13;8.20;99.90